sensor_id;sensor_type;location;lat;lon;timestamp;pressure;altitude;pressure_sealevel;temperature;humidity
19108;BME280;9686;48.832;9.126;2022-10-26T00:02:16;98189.97;;;15.48;nan
19108;BME280;9686;48.832;9.126;2022-10-26T00:04:41;98188.44;;;15.73;nan
19108;BME280;9686;48.832;9.126;2022-10-26T00:07:06;98183.25;;;15.72;nan
19108;BME280;9686;48.832;9.126;2022-10-26T00:09:32;98188.38;;;15.77;nan
19108;BME280;9686;48.832;9.126;2022-10-26T00:11:57;98187.47;;;15.78;nan
19108;BME280;9686;48.832;9.126;2022-10-26T00:14:22;98194.06;;;15.61;nan
19108;BME280;9686;48.832;9.126;2022-10-26T00:16:48;98191.38;;;15.63;nan
19108;BME280;9686;48.832;9.126;2022-10-26T00:19:13;98197.50;;;15.63;nan
19108;BME280;9686;48.832;9.126;2022-10-26T00:21:38;98192.47;;;15.53;nan
19108;BME280;9686;48.832;9.126;2022-10-26T00:24:04;98182.78;;;15.55;nan
19108;BME280;9686;48.832;9.126;2022-10-26T00:26:29;98189.75;;;15.56;nan
19108;BME280;9686;48.832;9.126;2022-10-26T00:28:55;98182.78;;;15.55;nan
19108;BME280;9686;48.832;9.126;2022-10-26T00:31:22;98181.78;;;15.62;nan
19108;BME280;9686;48.832;9.126;2022-10-26T00:33:54;98187.69;;;15.70;nan
19108;BME280;9686;48.832;9.126;2022-10-26T00:36:20;98183.53;;;15.61;nan
19108;BME280;9686;48.832;9.126;2022-10-26T00:38:50;98178.34;;;15.58;nan
19108;BME280;9686;48.832;9.126;2022-10-26T00:41:18;98187.69;;;15.70;nan
19108;BME280;9686;48.832;9.126;2022-10-26T00:43:44;98188.53;;;15.70;nan
19108;BME280;9686;48.832;9.126;2022-10-26T00:46:17;98188.41;;;15.75;nan
19108;BME280;9686;48.832;9.126;2022-10-26T00:48:48;98200.66;;;15.76;nan
19108;BME280;9686;48.832;9.126;2022-10-26T00:51:21;98190.22;;;15.73;nan
19108;BME280;9686;48.832;9.126;2022-10-26T00:53:49;98187.75;;;15.67;nan
19108;BME280;9686;48.832;9.126;2022-10-26T00:56:16;98190.03;;;15.79;nan
19108;BME280;9686;48.832;9.126;2022-10-26T00:58:42;98194.34;;;15.82;nan
19108;BME280;9686;48.832;9.126;2022-10-26T01:01:08;98187.69;;;15.70;nan
19108;BME280;9686;48.832;9.126;2022-10-26T01:03:34;98188.22;;;15.81;nan
19108;BME280;9686;48.832;9.126;2022-10-26T01:06:02;98190.81;;;15.83;nan
19108;BME280;9686;48.832;9.126;2022-10-26T01:08:28;98177.31;;;15.96;nan
19108;BME280;9686;48.832;9.126;2022-10-26T01:10:55;98186.00;;;15.98;nan
19108;BME280;9686;48.832;9.126;2022-10-26T01:13:22;98189.81;;;15.88;nan
19108;BME280;9686;48.832;9.126;2022-10-26T01:31:54;98163.38;;;15.93;nan
19108;BME280;9686;48.832;9.126;2022-10-26T01:36:59;98149.34;;;15.94;nan
19108;BME280;9686;48.832;9.126;2022-10-26T01:39:34;98150.53;;;15.82;nan
19108;BME280;9686;48.832;9.126;2022-10-26T01:42:03;98160.56;;;15.68;nan
19108;BME280;9686;48.832;9.126;2022-10-26T01:44:35;98168.88;;;15.51;nan
19108;BME280;9686;48.832;9.126;2022-10-26T01:47:06;98167.97;;;15.52;nan
19108;BME280;9686;48.832;9.126;2022-10-26T01:49:35;98148.59;;;15.56;nan
19108;BME280;9686;48.832;9.126;2022-10-26T01:52:02;98154.13;;;15.46;nan
19108;BME280;9686;48.832;9.126;2022-10-26T01:54:28;98168.78;;;15.54;nan
19108;BME280;9686;48.832;9.126;2022-10-26T01:56:56;98164.31;;;15.58;nan
19108;BME280;9686;48.832;9.126;2022-10-26T02:04:53;98147.97;;;15.47;nan
19108;BME280;9686;48.832;9.126;2022-10-26T02:07:33;98130.66;;;15.39;nan
19108;BME280;9686;48.832;9.126;2022-10-26T02:10:15;98127.03;;;15.43;nan
19108;BME280;9686;48.832;9.126;2022-10-26T02:15:24;98127.81;;;15.47;nan
19108;BME280;9686;48.832;9.126;2022-10-26T02:17:59;98131.53;;;15.40;nan
19108;BME280;9686;48.832;9.126;2022-10-26T02:20:33;98142.84;;;15.42;nan
19108;BME280;9686;48.832;9.126;2022-10-26T02:23:03;98146.72;;;15.27;nan
19108;BME280;9686;48.832;9.126;2022-10-26T02:28:04;98157.94;;;15.34;nan
19108;BME280;9686;48.832;9.126;2022-10-26T02:30:32;98169.34;;;15.33;nan
19108;BME280;9686;48.832;9.126;2022-10-26T02:32:59;98164.03;;;15.34;nan
19108;BME280;9686;48.832;9.126;2022-10-26T02:35:29;98175.63;;;15.27;nan
19108;BME280;9686;48.832;9.126;2022-10-26T02:37:59;98180.78;;;15.30;nan
19108;BME280;9686;48.832;9.126;2022-10-26T02:40:27;98175.34;;;15.38;nan
19108;BME280;9686;48.832;9.126;2022-10-26T02:42:55;98177.13;;;15.37;nan
19108;BME280;9686;48.832;9.126;2022-10-26T02:45:25;98170.25;;;15.32;nan
19108;BME280;9686;48.832;9.126;2022-10-26T02:47:53;98167.72;;;15.27;nan
19108;BME280;9686;48.832;9.126;2022-10-26T02:50:21;98177.22;;;15.33;nan
19108;BME280;9686;48.832;9.126;2022-10-26T02:52:56;98163.94;;;15.39;nan
19108;BME280;9686;48.832;9.126;2022-10-26T02:55:54;98160.66;;;15.65;nan
19108;BME280;9686;48.832;9.126;2022-10-26T02:58:25;98164.31;;;15.58;nan
19108;BME280;9686;48.832;9.126;2022-10-26T03:00:53;98166.81;;;15.64;nan
19108;BME280;9686;48.832;9.126;2022-10-26T03:03:19;98173.88;;;15.62;nan
19108;BME280;9686;48.832;9.126;2022-10-26T03:05:44;98176.56;;;15.59;nan
19108;BME280;9686;48.832;9.126;2022-10-26T03:08:10;98183.50;;;15.63;nan
19108;BME280;9686;48.832;9.126;2022-10-26T03:10:43;98183.81;;;15.49;nan
19108;BME280;9686;48.832;9.126;2022-10-26T03:13:10;98194.44;;;15.45;nan
19108;BME280;9686;48.832;9.126;2022-10-26T03:15:37;98182.22;;;15.43;nan
19108;BME280;9686;48.832;9.126;2022-10-26T03:18:03;98187.34;;;15.48;nan
19108;BME280;9686;48.832;9.126;2022-10-26T03:20:28;98187.31;;;15.50;nan
19108;BME280;9686;48.832;9.126;2022-10-26T03:22:54;98196.09;;;15.49;nan
19108;BME280;9686;48.832;9.126;2022-10-26T03:25:21;98202.38;;;15.43;nan
19108;BME280;9686;48.832;9.126;2022-10-26T03:27:55;98193.75;;;15.38;nan
19108;BME280;9686;48.832;9.126;2022-10-26T03:30:20;98192.94;;;15.36;nan
19108;BME280;9686;48.832;9.126;2022-10-26T03:32:46;98204.34;;;15.33;nan
19108;BME280;9686;48.832;9.126;2022-10-26T03:35:11;98195.44;;;15.40;nan
19108;BME280;9686;48.832;9.126;2022-10-26T03:37:36;98206.81;;;15.41;nan
19108;BME280;9686;48.832;9.126;2022-10-26T03:40:02;98217.09;;;15.49;nan
19108;BME280;9686;48.832;9.126;2022-10-26T03:42:27;98210.38;;;15.38;nan
19108;BME280;9686;48.832;9.126;2022-10-26T03:44:52;98210.59;;;15.29;nan
19108;BME280;9686;48.832;9.126;2022-10-26T03:47:18;98195.69;;;15.30;nan
19108;BME280;9686;48.832;9.126;2022-10-26T03:49:43;98195.69;;;15.30;nan
19108;BME280;9686;48.832;9.126;2022-10-26T03:52:08;98191.28;;;15.30;nan
19108;BME280;9686;48.832;9.126;2022-10-26T03:54:33;98199.13;;;15.32;nan
19108;BME280;9686;48.832;9.126;2022-10-26T03:56:59;98204.28;;;15.36;nan
19108;BME280;9686;48.832;9.126;2022-10-26T03:59:24;98190.31;;;15.34;nan
19108;BME280;9686;48.832;9.126;2022-10-26T04:01:49;98199.09;;;15.33;nan
19108;BME280;9686;48.832;9.126;2022-10-26T04:04:15;98186.72;;;15.38;nan
19108;BME280;9686;48.832;9.126;2022-10-26T04:06:40;98202.41;;;15.41;nan
19108;BME280;9686;48.832;9.126;2022-10-26T04:09:05;98187.72;;;15.33;nan
19108;BME280;9686;48.832;9.126;2022-10-26T04:11:32;98182.38;;;15.37;nan
19108;BME280;9686;48.832;9.126;2022-10-26T04:13:57;98172.88;;;15.32;nan
19108;BME280;9686;48.832;9.126;2022-10-26T04:16:25;98174.50;;;15.37;nan
19108;BME280;9686;48.832;9.126;2022-10-26T04:18:50;98172.91;;;15.30;nan
19108;BME280;9686;48.832;9.126;2022-10-26T04:21:16;98166.66;;;15.34;nan
19108;BME280;9686;48.832;9.126;2022-10-26T04:23:41;98171.00;;;15.37;nan
19108;BME280;9686;48.832;9.126;2022-10-26T04:26:07;98164.81;;;15.39;nan
19108;BME280;9686;48.832;9.126;2022-10-26T04:28:32;98175.63;;;15.27;nan
19108;BME280;9686;48.832;9.126;2022-10-26T04:30:57;98166.38;;;15.47;nan
19108;BME280;9686;48.832;9.126;2022-10-26T04:33:23;98173.94;;;15.57;nan
19108;BME280;9686;48.832;9.126;2022-10-26T04:35:48;98167.81;;;15.58;nan
19108;BME280;9686;48.832;9.126;2022-10-26T04:38:13;98168.63;;;15.62;nan
19108;BME280;9686;48.832;9.126;2022-10-26T04:40:39;98174.63;;;15.67;nan
19108;BME280;9686;48.832;9.126;2022-10-26T04:43:04;98180.63;;;15.72;nan
19108;BME280;9686;48.832;9.126;2022-10-26T04:45:30;98180.13;;;15.56;nan
19108;BME280;9686;48.832;9.126;2022-10-26T04:48:06;98187.94;;;15.59;nan
19108;BME280;9686;48.832;9.126;2022-10-26T04:50:33;98186.13;;;15.63;nan
19108;BME280;9686;48.832;9.126;2022-10-26T04:52:58;98174.81;;;15.59;nan
19108;BME280;9686;48.832;9.126;2022-10-26T04:55:24;98169.59;;;15.56;nan
19108;BME280;9686;48.832;9.126;2022-10-26T04:57:49;98170.47;;;15.57;nan
19108;BME280;9686;48.832;9.126;2022-10-26T05:00:15;98165.22;;;15.57;nan
19108;BME280;9686;48.832;9.126;2022-10-26T05:02:41;98172.13;;;15.62;nan
19108;BME280;9686;48.832;9.126;2022-10-26T05:05:06;98160.06;;;15.52;nan
19108;BME280;9686;48.832;9.126;2022-10-26T05:07:32;98164.44;;;15.53;nan
19108;BME280;9686;48.832;9.126;2022-10-26T05:09:57;98172.22;;;15.56;nan
19108;BME280;9686;48.832;9.126;2022-10-26T05:12:22;98178.28;;;15.61;nan
19108;BME280;9686;48.832;9.126;2022-10-26T05:14:48;98179.75;;;15.71;nan
19108;BME280;9686;48.832;9.126;2022-10-26T05:17:13;98173.50;;;15.76;nan
19108;BME280;9686;48.832;9.126;2022-10-26T05:19:38;98177.25;;;15.67;nan
19108;BME280;9686;48.832;9.126;2022-10-26T05:22:04;98175.53;;;15.66;nan
19108;BME280;9686;48.832;9.126;2022-10-26T05:24:29;98182.38;;;15.71;nan
19108;BME280;9686;48.832;9.126;2022-10-26T05:26:54;98183.44;;;15.64;nan
19108;BME280;9686;48.832;9.126;2022-10-26T05:29:20;98188.53;;;15.70;nan
19108;BME280;9686;48.832;9.126;2022-10-26T05:31:45;98181.22;;;15.82;nan
19108;BME280;9686;48.832;9.126;2022-10-26T05:34:10;98171.78;;;16.35;nan
19108;BME280;9686;48.832;9.126;2022-10-26T05:36:36;98171.34;;;16.50;nan
19108;BME280;9686;48.832;9.126;2022-10-26T05:39:01;98174.50;;;16.61;nan
19108;BME280;9686;48.832;9.126;2022-10-26T05:41:26;98183.94;;;16.70;nan
19108;BME280;9686;48.832;9.126;2022-10-26T05:43:52;98184.53;;;17.06;nan
19108;BME280;9686;48.832;9.126;2022-10-26T05:46:17;98186.25;;;17.07;nan
19108;BME280;9686;48.832;9.126;2022-10-26T05:48:42;98187.06;;;17.09;nan
19108;BME280;9686;48.832;9.126;2022-10-26T05:51:07;98196.44;;;16.90;nan
19108;BME280;9686;48.832;9.126;2022-10-26T05:53:33;98197.28;;;16.92;nan
19108;BME280;9686;48.832;9.126;2022-10-26T05:55:58;98197.66;;;16.80;nan
19108;BME280;9686;48.832;9.126;2022-10-26T05:58:24;98205.91;;;16.69;nan
19108;BME280;9686;48.832;9.126;2022-10-26T06:04:03;98215.75;;;16.61;nan
19108;BME280;9686;48.832;9.126;2022-10-26T06:06:38;98216.75;;;16.57;nan
19108;BME280;9686;48.832;9.126;2022-10-26T06:09:04;98229.81;;;16.60;nan
19108;BME280;9686;48.832;9.126;2022-10-26T06:11:30;98228.13;;;16.57;nan
19108;BME280;9686;48.832;9.126;2022-10-26T06:13:55;98250.00;;;16.59;nan
19108;BME280;9686;48.832;9.126;2022-10-26T06:16:53;98241.25;;;16.59;nan
19108;BME280;9686;48.832;9.126;2022-10-26T06:21:55;98262.81;;;16.42;nan
19108;BME280;9686;48.832;9.126;2022-10-26T06:24:40;98267.94;;;16.47;nan
19108;BME280;9686;48.832;9.126;2022-10-26T06:27:22;98270.44;;;16.51;nan
19108;BME280;9686;48.832;9.126;2022-10-26T06:30:02;98273.78;;;16.56;nan
19108;BME280;9686;48.832;9.126;2022-10-26T06:32:29;98282.19;;;16.38;nan
19108;BME280;9686;48.832;9.126;2022-10-26T06:35:38;98281.28;;;16.41;nan
19108;BME280;9686;48.832;9.126;2022-10-26T06:38:15;98268.69;;;16.50;nan
19108;BME280;9686;48.832;9.126;2022-10-26T06:40:44;98273.78;;;16.56;nan
19108;BME280;9686;48.832;9.126;2022-10-26T06:43:23;98275.38;;;16.62;nan
19108;BME280;9686;48.832;9.126;2022-10-26T06:45:55;98268.34;;;16.62;nan
19108;BME280;9686;48.832;9.126;2022-10-26T06:48:26;98277.13;;;16.61;nan
19108;BME280;9686;48.832;9.126;2022-10-26T06:50:53;98285.13;;;16.58;nan
19108;BME280;9686;48.832;9.126;2022-10-26T06:53:25;98285.84;;;16.63;nan
19108;BME280;9686;48.832;9.126;2022-10-26T06:55:52;98289.84;;;16.47;nan
19108;BME280;9686;48.832;9.126;2022-10-26T06:58:19;98291.94;;;16.67;nan
19108;BME280;9686;48.832;9.126;2022-10-26T07:00:47;98298.13;;;16.66;nan
19108;BME280;9686;48.832;9.126;2022-10-26T07:03:13;98304.50;;;16.56;nan
19108;BME280;9686;48.832;9.126;2022-10-26T07:05:39;98307.31;;;16.50;nan
19108;BME280;9686;48.832;9.126;2022-10-26T07:08:04;98311.69;;;16.51;nan
19108;BME280;9686;48.832;9.126;2022-10-26T07:10:30;98313.31;;;16.55;nan
19108;BME280;9686;48.832;9.126;2022-10-26T07:12:56;98316.63;;;16.61;nan
19108;BME280;9686;48.832;9.126;2022-10-26T07:15:21;98307.66;;;16.70;nan
19108;BME280;9686;48.832;9.126;2022-10-26T07:17:48;98321.69;;;16.71;nan
19108;BME280;9686;48.832;9.126;2022-10-26T07:20:19;98314.81;;;16.63;nan
19108;BME280;9686;48.832;9.126;2022-10-26T07:22:50;98322.69;;;16.67;nan
19108;BME280;9686;48.832;9.126;2022-10-26T07:25:16;98314.41;;;16.79;nan
19108;BME280;9686;48.832;9.126;2022-10-26T07:27:41;98322.34;;;16.77;nan
19108;BME280;9686;48.832;9.126;2022-10-26T07:30:07;98328.56;;;16.75;nan
19108;BME280;9686;48.832;9.126;2022-10-26T07:32:32;98331.88;;;16.81;nan
19108;BME280;9686;48.832;9.126;2022-10-26T07:34:57;98331.03;;;16.81;nan
19108;BME280;9686;48.832;9.126;2022-10-26T07:37:23;98333.50;;;16.85;nan
19108;BME280;9686;48.832;9.126;2022-10-26T07:39:48;98330.97;;;16.82;nan
19108;BME280;9686;48.832;9.126;2022-10-26T07:42:14;98336.97;;;16.87;nan
19108;BME280;9686;48.832;9.126;2022-10-26T07:44:39;98339.34;;;16.97;nan
19108;BME280;9686;48.832;9.126;2022-10-26T07:47:05;98339.50;;;16.90;nan
19108;BME280;9686;48.832;9.126;2022-10-26T07:49:30;98340.06;;;17.02;nan
19108;BME280;9686;48.832;9.126;2022-10-26T07:51:55;98344.63;;;16.97;nan
19108;BME280;9686;48.832;9.126;2022-10-26T07:54:20;98341.59;;;17.09;nan
19108;BME280;9686;48.832;9.126;2022-10-26T07:56:48;98335.44;;;17.38;nan
19108;BME280;9686;48.832;9.126;2022-10-26T07:59:14;98336.13;;;17.44;nan
19108;BME280;9686;48.832;9.126;2022-10-26T08:01:39;98336.13;;;17.44;nan
19108;BME280;9686;48.832;9.126;2022-10-26T08:04:04;98327.88;;;17.55;nan
19108;BME280;9686;48.832;9.126;2022-10-26T08:06:30;98326.66;;;17.65;nan
19108;BME280;9686;48.832;9.126;2022-10-26T08:08:55;98336.56;;;17.85;nan
19108;BME280;9686;48.832;9.126;2022-10-26T08:11:20;98326.63;;;17.93;nan
19108;BME280;9686;48.832;9.126;2022-10-26T08:13:46;98333.44;;;18.00;nan
19108;BME280;9686;48.832;9.126;2022-10-26T08:16:11;98333.06;;;18.11;nan
19108;BME280;9686;48.832;9.126;2022-10-26T08:18:37;98335.53;;;18.15;nan
19108;BME280;9686;48.832;9.126;2022-10-26T08:21:05;98332.78;;;18.18;nan
19108;BME280;9686;48.832;9.126;2022-10-26T08:23:32;98332.38;;;18.31;nan
19108;BME280;9686;48.832;9.126;2022-10-26T08:25:58;98334.69;;;18.40;nan
19108;BME280;9686;48.832;9.126;2022-10-26T08:28:24;98336.53;;;18.38;nan
19108;BME280;9686;48.832;9.126;2022-10-26T08:30:49;98337.03;;;18.49;nan
19108;BME280;9686;48.832;9.126;2022-10-26T08:33:15;98328.72;;;18.35;nan
19108;BME280;9686;48.832;9.126;2022-10-26T08:35:40;98321.06;;;18.52;nan
19108;BME280;9686;48.832;9.126;2022-10-26T08:38:05;98327.09;;;18.56;nan
19108;BME280;9686;48.832;9.126;2022-10-26T08:40:33;98331.81;;;18.46;nan
19108;BME280;9686;48.832;9.126;2022-10-26T08:43:15;98335.50;;;18.42;nan
19108;BME280;9686;48.832;9.126;2022-10-26T08:45:50;98334.09;;;18.57;nan
19108;BME280;9686;48.832;9.126;2022-10-26T08:48:21;98339.25;;;18.60;nan
19108;BME280;9686;48.832;9.126;2022-10-26T08:50:52;98350.50;;;18.66;nan
19108;BME280;9686;48.832;9.126;2022-10-26T08:53:33;98346.25;;;18.61;nan
19108;BME280;9686;48.832;9.126;2022-10-26T08:56:20;98358.25;;;18.71;nan
19108;BME280;9686;48.832;9.126;2022-10-26T08:58:55;98362.53;;;18.75;nan
19108;BME280;9686;48.832;9.126;2022-10-26T09:01:22;98373.53;;;18.86;nan
19108;BME280;9686;48.832;9.126;2022-10-26T09:03:47;98372.38;;;18.93;nan
19108;BME280;9686;48.832;9.126;2022-10-26T09:09:16;98382.69;;;19.01;nan
19108;BME280;9686;48.832;9.126;2022-10-26T09:14:39;98377.69;;;19.17;nan
19108;BME280;9686;48.832;9.126;2022-10-26T09:17:38;98381.00;;;19.22;nan
19108;BME280;9686;48.832;9.126;2022-10-26T09:25:50;98385.16;;;19.51;nan
19108;BME280;9686;48.832;9.126;2022-10-26T09:28:18;98393.16;;;19.73;nan
19108;BME280;9686;48.832;9.126;2022-10-26T09:30:45;98390.50;;;19.73;nan
19108;BME280;9686;48.832;9.126;2022-10-26T09:33:14;98395.50;;;19.80;nan
19108;BME280;9686;48.832;9.126;2022-10-26T09:35:48;98403.06;;;19.67;nan
19108;BME280;9686;48.832;9.126;2022-10-26T09:38:24;98405.19;;;20.01;nan
19108;BME280;9686;48.832;9.126;2022-10-26T09:43:45;98413.50;;;20.14;nan
19108;BME280;9686;48.832;9.126;2022-10-26T09:46:21;98405.59;;;20.35;nan
19108;BME280;9686;48.832;9.126;2022-10-26T09:48:55;98404.13;;;20.27;nan
19108;BME280;9686;48.832;9.126;2022-10-26T09:51:22;98413.06;;;20.25;nan
19108;BME280;9686;48.832;9.126;2022-10-26T09:53:48;98412.84;;;20.29;nan
19108;BME280;9686;48.832;9.126;2022-10-26T09:56:14;98406.03;;;20.24;nan
19108;BME280;9686;48.832;9.126;2022-10-26T09:58:46;98402.53;;;20.45;nan
19108;BME280;9686;48.832;9.126;2022-10-26T10:01:33;98405.03;;;20.69;nan
19108;BME280;9686;48.832;9.126;2022-10-26T10:04:29;98411.41;;;20.65;nan
19108;BME280;9686;48.832;9.126;2022-10-26T10:07:12;98414.06;;;20.65;nan
19108;BME280;9686;48.832;9.126;2022-10-26T10:09:38;98412.47;;;20.60;nan
19108;BME280;9686;48.832;9.126;2022-10-26T10:12:03;98415.91;;;20.62;nan
19108;BME280;9686;48.832;9.126;2022-10-26T10:14:37;98415.25;;;20.57;nan
19108;BME280;9686;48.832;9.126;2022-10-26T10:17:05;98412.53;;;20.59;nan
19108;BME280;9686;48.832;9.126;2022-10-26T10:19:36;98416.91;;;20.60;nan
19108;BME280;9686;48.832;9.126;2022-10-26T10:25:00;98428.03;;;20.68;nan
19108;BME280;9686;48.832;9.126;2022-10-26T10:27:28;98429.84;;;21.07;nan
19108;BME280;9686;48.832;9.126;2022-10-26T10:29:55;98431.44;;;21.11;nan
19108;BME280;9686;48.832;9.126;2022-10-26T10:32:29;98440.50;;;21.05;nan
19108;BME280;9686;48.832;9.126;2022-10-26T10:34:58;98443.06;;;21.08;nan
19108;BME280;9686;48.832;9.126;2022-10-26T10:37:31;98437.47;;;21.14;nan
19108;BME280;9686;48.832;9.126;2022-10-26T10:42:31;98442.91;;;21.11;nan
19108;BME280;9686;48.832;9.126;2022-10-26T10:44:57;98436.69;;;21.12;nan
19108;BME280;9686;48.832;9.126;2022-10-26T10:47:34;98443.94;;;21.07;nan
19108;BME280;9686;48.832;9.126;2022-10-26T10:50:18;98446.84;;;21.21;nan
19108;BME280;9686;48.832;9.126;2022-10-26T10:52:44;98452.69;;;21.30;nan
19108;BME280;9686;48.832;9.126;2022-10-26T10:57:43;98447.84;;;21.19;nan
19108;BME280;9686;48.832;9.126;2022-10-26T11:00:22;98455.94;;;21.16;nan
19108;BME280;9686;48.832;9.126;2022-10-26T11:11:17;98457.03;;;22.07;nan
19108;BME280;9686;48.832;9.126;2022-10-26T11:14:17;98454.16;;;21.93;nan
19108;BME280;9686;48.832;9.126;2022-10-26T11:16:48;98457.38;;;21.81;nan
19108;BME280;9686;48.832;9.126;2022-10-26T11:19:19;98448.06;;;21.91;nan
19108;BME280;9686;48.832;9.126;2022-10-26T11:21:51;98462.03;;;21.95;nan
19108;BME280;9686;48.832;9.126;2022-10-26T11:24:26;98460.88;;;22.00;nan
19108;BME280;9686;48.832;9.126;2022-10-26T11:26:58;98456.91;;;22.28;nan
19108;BME280;9686;48.832;9.126;2022-10-26T11:32:11;98460.41;;;23.16;nan
19108;BME280;9686;48.832;9.126;2022-10-26T11:35:01;98456.22;;;23.11;nan
19108;BME280;9686;48.832;9.126;2022-10-26T11:37:33;98463.09;;;23.15;nan
19108;BME280;9686;48.832;9.126;2022-10-26T11:42:54;98462.31;;;23.13;nan
19108;BME280;9686;48.832;9.126;2022-10-26T11:45:31;98460.78;;;23.08;nan
19108;BME280;9686;48.832;9.126;2022-10-26T11:48:11;98469.44;;;23.29;nan
19108;BME280;9686;48.832;9.126;2022-10-26T11:50:42;98473.44;;;23.21;nan
19108;BME280;9686;48.832;9.126;2022-10-26T11:53:11;98474.88;;;22.93;nan
19108;BME280;9686;48.832;9.126;2022-10-26T11:55:39;98470.81;;;23.36;nan
19108;BME280;9686;48.832;9.126;2022-10-26T11:58:07;98471.22;;;23.29;nan
19108;BME280;9686;48.832;9.126;2022-10-26T12:00:44;98466.25;;;23.23;nan
19108;BME280;9686;48.832;9.126;2022-10-26T12:03:19;98473.91;;;23.12;nan
19108;BME280;9686;48.832;9.126;2022-10-26T12:05:49;98469.53;;;23.11;nan
19108;BME280;9686;48.832;9.126;2022-10-26T12:08:35;98471.22;;;22.96;nan
19108;BME280;9686;48.832;9.126;2022-10-26T12:11:19;98477.56;;;22.93;nan
19108;BME280;9686;48.832;9.126;2022-10-26T12:13:47;98480.38;;;22.90;nan
19108;BME280;9686;48.832;9.126;2022-10-26T12:19:01;98480.34;;;22.73;nan
19108;BME280;9686;48.832;9.126;2022-10-26T12:21:30;98485.97;;;22.67;nan
19108;BME280;9686;48.832;9.126;2022-10-26T12:23:59;98487.59;;;22.69;nan
19108;BME280;9686;48.832;9.126;2022-10-26T12:33:57;98491.38;;;22.83;nan
19108;BME280;9686;48.832;9.126;2022-10-26T12:41:57;98494.06;;;22.64;nan
19108;BME280;9686;48.832;9.126;2022-10-26T12:44:33;98487.09;;;22.61;nan
19108;BME280;9686;48.832;9.126;2022-10-26T12:46:59;98487.00;;;22.82;nan
19108;BME280;9686;48.832;9.126;2022-10-26T12:49:58;98500.66;;;22.74;nan
19108;BME280;9686;48.832;9.126;2022-10-26T12:52:27;98495.88;;;22.81;nan
19108;BME280;9686;48.832;9.126;2022-10-26T13:00:21;98516.16;;;22.83;nan
19108;BME280;9686;48.832;9.126;2022-10-26T13:08:57;98509.00;;;23.35;nan
19108;BME280;9686;48.832;9.126;2022-10-26T13:11:29;98514.13;;;23.23;nan
19108;BME280;9686;48.832;9.126;2022-10-26T13:14:03;98506.75;;;23.28;nan
19108;BME280;9686;48.832;9.126;2022-10-26T13:16:29;98505.47;;;23.35;nan
19108;BME280;9686;48.832;9.126;2022-10-26T13:18:55;98521.84;;;23.45;nan
19108;BME280;9686;48.832;9.126;2022-10-26T13:21:22;98518.16;;;23.47;nan
19108;BME280;9686;48.832;9.126;2022-10-26T13:26:24;98522.06;;;23.57;nan
19108;BME280;9686;48.832;9.126;2022-10-26T13:28:51;98519.47;;;23.56;nan
19108;BME280;9686;48.832;9.126;2022-10-26T13:34:11;98525.38;;;23.45;nan
19108;BME280;9686;48.832;9.126;2022-10-26T13:36:46;98516.81;;;23.56;nan
19108;BME280;9686;48.832;9.126;2022-10-26T13:39:25;98526.97;;;23.65;nan
19108;BME280;9686;48.832;9.126;2022-10-26T13:41:52;98526.31;;;23.77;nan
19108;BME280;9686;48.832;9.126;2022-10-26T13:44:28;98525.16;;;23.65;nan
19108;BME280;9686;48.832;9.126;2022-10-26T13:47:03;98520.69;;;23.66;nan
19108;BME280;9686;48.832;9.126;2022-10-26T13:49:33;98539.97;;;23.87;nan
19108;BME280;9686;48.832;9.126;2022-10-26T13:52:02;98539.97;;;23.87;nan
19108;BME280;9686;48.832;9.126;2022-10-26T13:54:38;98531.66;;;23.77;nan
19108;BME280;9686;48.832;9.126;2022-10-26T13:57:12;98531.16;;;23.36;nan
19108;BME280;9686;48.832;9.126;2022-10-26T13:59:42;98527.38;;;23.57;nan
19108;BME280;9686;48.832;9.126;2022-10-26T14:04:47;98535.72;;;23.67;nan
19108;BME280;9686;48.832;9.126;2022-10-26T14:07:19;98528.47;;;23.71;nan
19108;BME280;9686;48.832;9.126;2022-10-26T14:09:55;98532.78;;;24.05;nan
19108;BME280;9686;48.832;9.126;2022-10-26T14:12:21;98535.03;;;24.12;nan
19108;BME280;9686;48.832;9.126;2022-10-26T14:14:48;98545.59;;;24.14;nan
19108;BME280;9686;48.832;9.126;2022-10-26T14:17:18;98538.53;;;24.13;nan
19108;BME280;9686;48.832;9.126;2022-10-26T14:19:44;98548.88;;;24.03;nan
19108;BME280;9686;48.832;9.126;2022-10-26T14:22:19;98555.44;;;23.80;nan
19108;BME280;9686;48.832;9.126;2022-10-26T14:24:51;98557.31;;;23.78;nan
19108;BME280;9686;48.832;9.126;2022-10-26T14:27:19;98558.53;;;23.88;nan
19108;BME280;9686;48.832;9.126;2022-10-26T14:29:45;98561.53;;;23.82;nan
19108;BME280;9686;48.832;9.126;2022-10-26T14:32:25;98559.63;;;23.68;nan
19108;BME280;9686;48.832;9.126;2022-10-26T14:34:51;98570.59;;;23.45;nan
19108;BME280;9686;48.832;9.126;2022-10-26T14:38:10;98567.66;;;23.67;nan
19108;BME280;9686;48.832;9.126;2022-10-26T14:40:15;98575.44;;;23.54;nan
19108;BME280;9686;48.832;9.126;2022-10-26T14:42:42;98573.25;;;23.45;nan
19108;BME280;9686;48.832;9.126;2022-10-26T14:48:05;98584.94;;;23.43;nan
19108;BME280;9686;48.832;9.126;2022-10-26T14:50:31;98580.31;;;23.29;nan
19108;BME280;9686;48.832;9.126;2022-10-26T14:53:12;98575.06;;;23.10;nan
19108;BME280;9686;48.832;9.126;2022-10-26T14:55:49;98583.63;;;23.17;nan
19108;BME280;9686;48.832;9.126;2022-10-26T14:58:29;98584.22;;;23.22;nan
19108;BME280;9686;48.832;9.126;2022-10-26T15:01:44;98591.25;;;23.40;nan
19108;BME280;9686;48.832;9.126;2022-10-26T15:04:35;98577.28;;;23.19;nan
19108;BME280;9686;48.832;9.126;2022-10-26T15:07:19;98590.66;;;23.18;nan
19108;BME280;9686;48.832;9.126;2022-10-26T15:12:29;98591.66;;;22.98;nan
19108;BME280;9686;48.832;9.126;2022-10-26T15:15:00;98598.66;;;22.82;nan
19108;BME280;9686;48.832;9.126;2022-10-26T15:17:40;98599.09;;;22.72;nan
19108;BME280;9686;48.832;9.126;2022-10-26T15:20:13;98599.41;;;22.48;nan
19108;BME280;9686;48.832;9.126;2022-10-26T15:22:41;98603.72;;;22.31;nan
19108;BME280;9686;48.832;9.126;2022-10-26T15:25:17;98608.91;;;22.15;nan
19108;BME280;9686;48.832;9.126;2022-10-26T15:27:46;98610.44;;;22.01;nan
19108;BME280;9686;48.832;9.126;2022-10-26T15:30:26;98618.09;;;21.88;nan
19108;BME280;9686;48.832;9.126;2022-10-26T15:32:54;98620.44;;;21.55;nan
19108;BME280;9686;48.832;9.126;2022-10-26T15:35:26;98634.84;;;21.49;nan
19108;BME280;9686;48.832;9.126;2022-10-26T15:37:52;98627.38;;;21.39;nan
19108;BME280;9686;48.832;9.126;2022-10-26T15:40:19;98623.28;;;21.10;nan